Prunedale, California
Current Conditions -  °F | °C
As of 11:53 AM on Sunday 23 Nov 2014 (Local Time) from KSNS Reporting Station
Clear Clear  
Wind Chill: 66°   Ceiling: Unl
Heat Index: 66°   Visibility: 10mi
Dew Point: 44°   Wind: 3mph
Humidity: 45%   Direction: NA
Pressure: 30.28"   Gusts: NA
Location:  36.7756°N, 121.661°W
Report Text: KSNS 231953Z VRB03KT 10SM CLR 19/07 A3028 RMK AO2 SLP261 T01890067
Loading
Personal Weather Stations






























Interactive Weather Map New forecast layout! Learn more

10-Day Weather Forecast

Advertisements
Track Severe Weather on mobile